sensor_id;sensor_type;location;lat;lon;timestamp;P1;durP1;ratioP1;P2;durP2;ratioP2
7523;SDS011;3803;51.666;7.630;2022-07-03T00:00:17;4.60;;;3.50;;
7523;SDS011;3803;51.666;7.630;2022-07-03T00:00:38;4.97;;;3.38;;
7523;SDS011;3803;51.666;7.630;2022-07-03T00:00:59;5.68;;;3.83;;
7523;SDS011;3803;51.666;7.630;2022-07-03T00:01:19;5.40;;;3.80;;
7523;SDS011;3803;51.666;7.630;2022-07-03T00:01:41;4.50;;;3.72;;
7523;SDS011;3803;51.666;7.630;2022-07-03T00:02:02;3.72;;;3.33;;
7523;SDS011;3803;51.666;7.630;2022-07-03T00:02:22;3.63;;;3.33;;
7523;SDS011;3803;51.666;7.630;2022-07-03T00:02:43;3.92;;;3.50;;
7523;SDS011;3803;51.666;7.630;2022-07-03T00:03:05;4.47;;;3.40;;
7523;SDS011;3803;51.666;7.630;2022-07-03T00:03:26;5.30;;;3.30;;
7523;SDS011;3803;51.666;7.630;2022-07-03T00:03:46;4.60;;;3.30;;
7523;SDS011;3803;51.666;7.630;2022-07-03T00:04:07;3.60;;;3.30;;
7523;SDS011;3803;51.666;7.630;2022-07-03T00:04:28;3.72;;;3.40;;
7523;SDS011;3803;51.666;7.630;2022-07-03T00:04:48;3.85;;;3.45;;
7523;SDS011;3803;51.666;7.630;2022-07-03T00:05:09;3.77;;;3.40;;
7523;SDS011;3803;51.666;7.630;2022-07-03T00:05:30;3.70;;;3.40;;
7523;SDS011;3803;51.666;7.630;2022-07-03T00:05:50;3.75;;;3.40;;
7523;SDS011;3803;51.666;7.630;2022-07-03T00:06:11;3.70;;;3.40;;
7523;SDS011;3803;51.666;7.630;2022-07-03T00:06:32;4.30;;;3.40;;
7523;SDS011;3803;51.666;7.630;2022-07-03T00:06:54;4.50;;;3.30;;
7523;SDS011;3803;51.666;7.630;2022-07-03T00:07:15;5.07;;;3.50;;
7523;SDS011;3803;51.666;7.630;2022-07-03T00:07:38;4.45;;;3.70;;
7523;SDS011;3803;51.666;7.630;2022-07-03T00:07:59;5.80;;;3.55;;
7523;SDS011;3803;51.666;7.630;2022-07-03T00:08:19;5.75;;;3.50;;
7523;SDS011;3803;51.666;7.630;2022-07-03T00:08:40;6.43;;;3.25;;
7523;SDS011;3803;51.666;7.630;2022-07-03T00:09:02;6.70;;;3.30;;
7523;SDS011;3803;51.666;7.630;2022-07-03T00:09:24;5.43;;;3.10;;
7523;SDS011;3803;51.666;7.630;2022-07-03T00:09:44;4.93;;;3.20;;
7523;SDS011;3803;51.666;7.630;2022-07-03T00:10:06;4.07;;;3.25;;
7523;SDS011;3803;51.666;7.630;2022-07-03T00:10:27;3.75;;;3.35;;
7523;SDS011;3803;51.666;7.630;2022-07-03T00:10:48;3.85;;;3.50;;
7523;SDS011;3803;51.666;7.630;2022-07-03T00:11:09;3.80;;;3.50;;
7523;SDS011;3803;51.666;7.630;2022-07-03T00:11:42;3.97;;;3.67;;
7523;SDS011;3803;51.666;7.630;2022-07-03T00:12:03;4.93;;;3.60;;
7523;SDS011;3803;51.666;7.630;2022-07-03T00:12:24;4.85;;;3.40;;
7523;SDS011;3803;51.666;7.630;2022-07-03T00:12:45;4.68;;;3.28;;
7523;SDS011;3803;51.666;7.630;2022-07-03T00:13:06;4.70;;;3.20;;
7523;SDS011;3803;51.666;7.630;2022-07-03T00:13:27;5.68;;;3.30;;
7523;SDS011;3803;51.666;7.630;2022-07-03T00:13:48;4.88;;;3.40;;
7523;SDS011;3803;51.666;7.630;2022-07-03T00:14:09;4.43;;;3.37;;
7523;SDS011;3803;51.666;7.630;2022-07-03T00:14:30;3.70;;;3.40;;
7523;SDS011;3803;51.666;7.630;2022-07-03T00:14:52;3.63;;;3.23;;
7523;SDS011;3803;51.666;7.630;2022-07-03T00:15:12;4.33;;;3.33;;
7523;SDS011;3803;51.666;7.630;2022-07-03T00:15:33;3.90;;;3.35;;
7523;SDS011;3803;51.666;7.630;2022-07-03T00:15:54;3.75;;;3.45;;
7523;SDS011;3803;51.666;7.630;2022-07-03T00:16:15;3.70;;;3.40;;
7523;SDS011;3803;51.666;7.630;2022-07-03T00:16:36;4.05;;;3.40;;
7523;SDS011;3803;51.666;7.630;2022-07-03T00:16:57;5.38;;;3.60;;
7523;SDS011;3803;51.666;7.630;2022-07-03T00:17:17;5.00;;;3.70;;
7523;SDS011;3803;51.666;7.630;2022-07-03T00:17:38;4.70;;;3.88;;
7523;SDS011;3803;51.666;7.630;2022-07-03T00:17:59;5.77;;;3.70;;
7523;SDS011;3803;51.666;7.630;2022-07-03T00:18:19;6.90;;;3.50;;
7523;SDS011;3803;51.666;7.630;2022-07-03T00:18:41;6.45;;;3.40;;
7523;SDS011;3803;51.666;7.630;2022-07-03T00:19:01;4.22;;;3.22;;
7523;SDS011;3803;51.666;7.630;2022-07-03T00:19:23;3.70;;;3.40;;
7523;SDS011;3803;51.666;7.630;2022-07-03T00:19:44;3.63;;;3.33;;
7523;SDS011;3803;51.666;7.630;2022-07-03T00:20:05;5.30;;;3.50;;
7523;SDS011;3803;51.666;7.630;2022-07-03T00:20:27;5.35;;;3.30;;
7523;SDS011;3803;51.666;7.630;2022-07-03T00:21:02;5.50;;;3.22;;
7523;SDS011;3803;51.666;7.630;2022-07-03T00:21:28;3.30;;;3.00;;
7523;SDS011;3803;51.666;7.630;2022-07-03T00:21:58;3.50;;;3.20;;
7523;SDS011;3803;51.666;7.630;2022-07-03T00:22:25;5.07;;;3.50;;
7523;SDS011;3803;51.666;7.630;2022-07-03T00:22:46;4.85;;;3.20;;
7523;SDS011;3803;51.666;7.630;2022-07-03T00:23:09;4.32;;;3.35;;
7523;SDS011;3803;51.666;7.630;2022-07-03T00:23:38;4.60;;;3.70;;
7523;SDS011;3803;51.666;7.630;2022-07-03T00:24:43;5.60;;;3.80;;
7523;SDS011;3803;51.666;7.630;2022-07-03T00:24:48;5.68;;;3.40;;
7523;SDS011;3803;51.666;7.630;2022-07-03T00:25:12;3.85;;;2.95;;
7523;SDS011;3803;51.666;7.630;2022-07-03T00:25:33;3.35;;;3.05;;
7523;SDS011;3803;51.666;7.630;2022-07-03T00:25:57;4.35;;;3.45;;
7523;SDS011;3803;51.666;7.630;2022-07-03T00:26:21;4.53;;;3.60;;
7523;SDS011;3803;51.666;7.630;2022-07-03T00:26:45;4.18;;;3.40;;
7523;SDS011;3803;51.666;7.630;2022-07-03T00:27:14;4.00;;;3.33;;
7523;SDS011;3803;51.666;7.630;2022-07-03T00:27:39;4.30;;;3.33;;
7523;SDS011;3803;51.666;7.630;2022-07-03T00:28:00;3.90;;;3.53;;
7523;SDS011;3803;51.666;7.630;2022-07-03T00:28:22;6.15;;;3.50;;
7523;SDS011;3803;51.666;7.630;2022-07-03T00:28:44;5.80;;;3.40;;
7523;SDS011;3803;51.666;7.630;2022-07-03T00:29:11;6.13;;;3.42;;
7523;SDS011;3803;51.666;7.630;2022-07-03T00:29:36;4.03;;;3.60;;
7523;SDS011;3803;51.666;7.630;2022-07-03T00:30:00;4.00;;;3.60;;
7523;SDS011;3803;51.666;7.630;2022-07-03T00:30:22;4.00;;;3.38;;
7523;SDS011;3803;51.666;7.630;2022-07-03T00:30:42;3.85;;;3.10;;
7523;SDS011;3803;51.666;7.630;2022-07-03T00:31:08;3.83;;;3.10;;
7523;SDS011;3803;51.666;7.630;2022-07-03T00:31:30;3.88;;;3.50;;
7523;SDS011;3803;51.666;7.630;2022-07-03T00:31:53;4.10;;;3.70;;
7523;SDS011;3803;51.666;7.630;2022-07-03T00:32:17;3.80;;;3.50;;
7523;SDS011;3803;51.666;7.630;2022-07-03T00:32:41;3.58;;;3.28;;
7523;SDS011;3803;51.666;7.630;2022-07-03T00:33:03;4.20;;;3.20;;
7523;SDS011;3803;51.666;7.630;2022-07-03T00:33:26;4.60;;;3.33;;
7523;SDS011;3803;51.666;7.630;2022-07-03T00:33:49;5.40;;;3.70;;
7523;SDS011;3803;51.666;7.630;2022-07-03T00:34:15;5.10;;;3.60;;
7523;SDS011;3803;51.666;7.630;2022-07-03T00:34:38;4.47;;;3.40;;
7523;SDS011;3803;51.666;7.630;2022-07-03T00:35:00;3.63;;;3.33;;
7523;SDS011;3803;51.666;7.630;2022-07-03T00:35:21;5.22;;;3.70;;
7523;SDS011;3803;51.666;7.630;2022-07-03T00:35:42;5.80;;;3.70;;
7523;SDS011;3803;51.666;7.630;2022-07-03T00:36:04;6.78;;;3.75;;
7523;SDS011;3803;51.666;7.630;2022-07-03T00:36:34;4.50;;;3.42;;
7523;SDS011;3803;51.666;7.630;2022-07-03T00:36:57;3.70;;;3.30;;
7523;SDS011;3803;51.666;7.630;2022-07-03T00:37:20;3.40;;;3.10;;
7523;SDS011;3803;51.666;7.630;2022-07-03T00:37:41;3.80;;;3.40;;
7523;SDS011;3803;51.666;7.630;2022-07-03T00:38:02;4.10;;;3.50;;
7523;SDS011;3803;51.666;7.630;2022-07-03T00:38:23;6.07;;;3.90;;
7523;SDS011;3803;51.666;7.630;2022-07-03T00:38:45;5.90;;;3.80;;
7523;SDS011;3803;51.666;7.630;2022-07-03T00:39:05;7.38;;;3.97;;
7523;SDS011;3803;51.666;7.630;2022-07-03T00:39:26;5.43;;;3.72;;
7523;SDS011;3803;51.666;7.630;2022-07-03T00:39:47;6.03;;;3.80;;
7523;SDS011;3803;51.666;7.630;2022-07-03T00:40:09;4.10;;;3.53;;
7523;SDS011;3803;51.666;7.630;2022-07-03T00:40:30;4.55;;;3.70;;
7523;SDS011;3803;51.666;7.630;2022-07-03T00:40:51;3.90;;;3.33;;
7523;SDS011;3803;51.666;7.630;2022-07-03T00:41:23;4.00;;;3.40;;
7523;SDS011;3803;51.666;7.630;2022-07-03T00:41:46;4.47;;;3.50;;
7523;SDS011;3803;51.666;7.630;2022-07-03T00:42:07;4.30;;;3.53;;
7523;SDS011;3803;51.666;7.630;2022-07-03T00:42:28;3.70;;;3.30;;
7523;SDS011;3803;51.666;7.630;2022-07-03T00:42:50;3.42;;;3.13;;
7523;SDS011;3803;51.666;7.630;2022-07-03T00:43:15;3.60;;;3.30;;
7523;SDS011;3803;51.666;7.630;2022-07-03T00:43:38;3.67;;;3.38;;
7523;SDS011;3803;51.666;7.630;2022-07-03T00:43:59;5.40;;;3.67;;
7523;SDS011;3803;51.666;7.630;2022-07-03T00:44:20;6.60;;;3.70;;
7523;SDS011;3803;51.666;7.630;2022-07-03T00:44:48;6.18;;;3.55;;
7523;SDS011;3803;51.666;7.630;2022-07-03T00:45:17;3.80;;;3.50;;
7523;SDS011;3803;51.666;7.630;2022-07-03T00:45:40;3.70;;;3.40;;
7523;SDS011;3803;51.666;7.630;2022-07-03T00:46:08;6.13;;;3.65;;
7523;SDS011;3803;51.666;7.630;2022-07-03T00:46:30;6.50;;;3.60;;
7523;SDS011;3803;51.666;7.630;2022-07-03T00:46:52;5.15;;;3.63;;
7523;SDS011;3803;51.666;7.630;2022-07-03T00:47:18;4.60;;;3.50;;
7523;SDS011;3803;51.666;7.630;2022-07-03T00:47:41;4.57;;;3.58;;
7523;SDS011;3803;51.666;7.630;2022-07-03T00:48:02;4.18;;;3.50;;
7523;SDS011;3803;51.666;7.630;2022-07-03T00:48:26;3.63;;;3.33;;
7523;SDS011;3803;51.666;7.630;2022-07-03T00:48:47;3.50;;;3.20;;
7523;SDS011;3803;51.666;7.630;2022-07-03T00:49:10;3.40;;;3.10;;
7523;SDS011;3803;51.666;7.630;2022-07-03T00:49:31;3.78;;;3.38;;
7523;SDS011;3803;51.666;7.630;2022-07-03T00:49:56;4.30;;;3.60;;
7523;SDS011;3803;51.666;7.630;2022-07-03T00:50:17;4.13;;;3.72;;
7523;SDS011;3803;51.666;7.630;2022-07-03T00:50:49;4.03;;;3.50;;
7523;SDS011;3803;51.666;7.630;2022-07-03T00:51:11;4.30;;;3.30;;
7523;SDS011;3803;51.666;7.630;2022-07-03T00:51:35;4.50;;;3.40;;
7523;SDS011;3803;51.666;7.630;2022-07-03T00:52:03;4.18;;;3.60;;
7523;SDS011;3803;51.666;7.630;2022-07-03T00:52:25;4.70;;;3.67;;
7523;SDS011;3803;51.666;7.630;2022-07-03T00:52:50;5.22;;;3.70;;
7523;SDS011;3803;51.666;7.630;2022-07-03T00:53:18;4.72;;;3.58;;
7523;SDS011;3803;51.666;7.630;2022-07-03T00:53:46;3.80;;;3.45;;
7523;SDS011;3803;51.666;7.630;2022-07-03T00:54:10;4.13;;;3.50;;
7523;SDS011;3803;51.666;7.630;2022-07-03T00:54:36;4.20;;;3.80;;
7523;SDS011;3803;51.666;7.630;2022-07-03T00:55:02;4.20;;;3.80;;
7523;SDS011;3803;51.666;7.630;2022-07-03T00:55:28;4.28;;;3.75;;
7523;SDS011;3803;51.666;7.630;2022-07-03T00:55:50;5.43;;;3.83;;
7523;SDS011;3803;51.666;7.630;2022-07-03T00:56:13;5.40;;;3.72;;
7523;SDS011;3803;51.666;7.630;2022-07-03T00:56:37;4.40;;;3.60;;
7523;SDS011;3803;51.666;7.630;2022-07-03T00:57:00;4.35;;;3.67;;
7523;SDS011;3803;51.666;7.630;2022-07-03T00:57:23;4.18;;;3.67;;
7523;SDS011;3803;51.666;7.630;2022-07-03T00:57:51;5.13;;;3.60;;
7523;SDS011;3803;51.666;7.630;2022-07-03T00:58:14;4.70;;;3.58;;
7523;SDS011;3803;51.666;7.630;2022-07-03T00:58:37;6.47;;;3.53;;
7523;SDS011;3803;51.666;7.630;2022-07-03T00:59:00;7.05;;;3.60;;
7523;SDS011;3803;51.666;7.630;2022-07-03T00:59:21;5.53;;;3.63;;
7523;SDS011;3803;51.666;7.630;2022-07-03T00:59:42;4.35;;;3.90;;
7523;SDS011;3803;51.666;7.630;2022-07-03T01:00:03;4.30;;;3.90;;
7523;SDS011;3803;51.666;7.630;2022-07-03T01:00:24;4.00;;;3.60;;
7523;SDS011;3803;51.666;7.630;2022-07-03T01:00:45;3.60;;;3.30;;
7523;SDS011;3803;51.666;7.630;2022-07-03T01:01:11;3.72;;;3.42;;
7523;SDS011;3803;51.666;7.630;2022-07-03T01:01:39;4.30;;;3.90;;
7523;SDS011;3803;51.666;7.630;2022-07-03T01:02:04;5.60;;;3.70;;
7523;SDS011;3803;51.666;7.630;2022-07-03T01:03:07;4.18;;;3.60;;
7523;SDS011;3803;51.666;7.630;2022-07-03T01:03:35;4.30;;;3.35;;
7523;SDS011;3803;51.666;7.630;2022-07-03T01:05:55;6.75;;;3.75;;
7523;SDS011;3803;51.666;7.630;2022-07-03T01:06:19;5.00;;;3.58;;
7523;SDS011;3803;51.666;7.630;2022-07-03T01:06:52;4.20;;;3.50;;
7523;SDS011;3803;51.666;7.630;2022-07-03T01:07:23;3.83;;;3.10;;
7523;SDS011;3803;51.666;7.630;2022-07-03T01:08:11;5.90;;;2.95;;
7523;SDS011;3803;51.666;7.630;2022-07-03T01:08:50;3.92;;;3.22;;
7523;SDS011;3803;51.666;7.630;2022-07-03T01:09:13;3.55;;;3.25;;
7523;SDS011;3803;51.666;7.630;2022-07-03T01:09:44;4.00;;;3.70;;
7523;SDS011;3803;51.666;7.630;2022-07-03T01:11:25;4.40;;;3.42;;
7523;SDS011;3803;51.666;7.630;2022-07-03T01:11:57;3.80;;;3.40;;
7523;SDS011;3803;51.666;7.630;2022-07-03T01:13:46;4.30;;;3.60;;
7523;SDS011;3803;51.666;7.630;2022-07-03T01:14:20;4.95;;;3.50;;
7523;SDS011;3803;51.666;7.630;2022-07-03T01:14:58;4.50;;;3.60;;
7523;SDS011;3803;51.666;7.630;2022-07-03T01:16:59;3.88;;;3.47;;
7523;SDS011;3803;51.666;7.630;2022-07-03T01:17:24;3.97;;;3.58;;
7523;SDS011;3803;51.666;7.630;2022-07-03T01:17:54;4.10;;;3.80;;
7523;SDS011;3803;51.666;7.630;2022-07-03T01:19:46;5.30;;;3.90;;
7523;SDS011;3803;51.666;7.630;2022-07-03T01:20:09;6.05;;;4.05;;
7523;SDS011;3803;51.666;7.630;2022-07-03T01:20:31;6.25;;;4.10;;
7523;SDS011;3803;51.666;7.630;2022-07-03T01:21:00;5.53;;;3.85;;
7523;SDS011;3803;51.666;7.630;2022-07-03T01:21:54;4.10;;;3.70;;
7523;SDS011;3803;51.666;7.630;2022-07-03T01:22:29;4.30;;;3.90;;
7523;SDS011;3803;51.666;7.630;2022-07-03T01:22:57;4.68;;;4.15;;
7523;SDS011;3803;51.666;7.630;2022-07-03T01:23:24;4.93;;;4.28;;
7523;SDS011;3803;51.666;7.630;2022-07-03T01:23:56;6.22;;;4.25;;
7523;SDS011;3803;51.666;7.630;2022-07-03T01:24:37;4.75;;;3.72;;
7523;SDS011;3803;51.666;7.630;2022-07-03T01:26:09;5.07;;;4.00;;
7523;SDS011;3803;51.666;7.630;2022-07-03T01:26:33;4.57;;;4.00;;
7523;SDS011;3803;51.666;7.630;2022-07-03T01:26:59;4.50;;;4.10;;
7523;SDS011;3803;51.666;7.630;2022-07-03T01:27:28;4.60;;;4.10;;
7523;SDS011;3803;51.666;7.630;2022-07-03T01:28:32;7.20;;;3.95;;
7523;SDS011;3803;51.666;7.630;2022-07-03T01:28:58;3.97;;;3.60;;
7523;SDS011;3803;51.666;7.630;2022-07-03T01:29:30;4.57;;;3.70;;
7523;SDS011;3803;51.666;7.630;2022-07-03T01:30:08;4.80;;;3.70;;
7523;SDS011;3803;51.666;7.630;2022-07-03T01:30:32;4.63;;;3.67;;
7523;SDS011;3803;51.666;7.630;2022-07-03T01:30:58;4.43;;;3.70;;
7523;SDS011;3803;51.666;7.630;2022-07-03T01:31:22;4.75;;;3.80;;
7523;SDS011;3803;51.666;7.630;2022-07-03T01:31:44;4.97;;;4.00;;
7523;SDS011;3803;51.666;7.630;2022-07-03T01:32:08;4.80;;;3.90;;
7523;SDS011;3803;51.666;7.630;2022-07-03T01:33:04;5.05;;;3.65;;
7523;SDS011;3803;51.666;7.630;2022-07-03T01:33:26;4.38;;;3.60;;
7523;SDS011;3803;51.666;7.630;2022-07-03T01:33:51;3.97;;;3.65;;
7523;SDS011;3803;51.666;7.630;2022-07-03T01:34:13;4.47;;;3.72;;
7523;SDS011;3803;51.666;7.630;2022-07-03T01:34:37;4.55;;;3.72;;
7523;SDS011;3803;51.666;7.630;2022-07-03T01:35:03;4.00;;;3.60;;
7523;SDS011;3803;51.666;7.630;2022-07-03T01:35:28;4.25;;;3.78;;
7523;SDS011;3803;51.666;7.630;2022-07-03T01:36:03;4.63;;;3.80;;
7523;SDS011;3803;51.666;7.630;2022-07-03T01:36:26;4.20;;;3.80;;
7523;SDS011;3803;51.666;7.630;2022-07-03T01:36:49;4.00;;;3.60;;
7523;SDS011;3803;51.666;7.630;2022-07-03T01:37:14;4.25;;;3.80;;
7523;SDS011;3803;51.666;7.630;2022-07-03T01:37:39;4.30;;;3.70;;
7523;SDS011;3803;51.666;7.630;2022-07-03T01:38:04;4.00;;;3.60;;
7523;SDS011;3803;51.666;7.630;2022-07-03T01:38:30;4.18;;;3.78;;
7523;SDS011;3803;51.666;7.630;2022-07-03T01:38:55;4.22;;;3.83;;
7523;SDS011;3803;51.666;7.630;2022-07-03T01:39:21;4.30;;;3.90;;
7523;SDS011;3803;51.666;7.630;2022-07-03T01:39:47;4.20;;;3.80;;
7523;SDS011;3803;51.666;7.630;2022-07-03T01:40:11;4.05;;;3.65;;
7523;SDS011;3803;51.666;7.630;2022-07-03T01:40:36;4.00;;;3.60;;
7523;SDS011;3803;51.666;7.630;2022-07-03T01:40:59;3.95;;;3.55;;
7523;SDS011;3803;51.666;7.630;2022-07-03T01:41:21;3.92;;;3.60;;
7523;SDS011;3803;51.666;7.630;2022-07-03T01:41:46;4.20;;;3.80;;
7523;SDS011;3803;51.666;7.630;2022-07-03T01:42:08;4.20;;;3.80;;
7523;SDS011;3803;51.666;7.630;2022-07-03T01:42:29;4.82;;;3.88;;
7523;SDS011;3803;51.666;7.630;2022-07-03T01:42:53;5.65;;;3.70;;
7523;SDS011;3803;51.666;7.630;2022-07-03T01:43:15;6.25;;;3.70;;
7523;SDS011;3803;51.666;7.630;2022-07-03T01:43:42;4.97;;;3.55;;
7523;SDS011;3803;51.666;7.630;2022-07-03T01:44:07;4.00;;;3.63;;
7523;SDS011;3803;51.666;7.630;2022-07-03T01:44:34;3.70;;;3.40;;
7523;SDS011;3803;51.666;7.630;2022-07-03T01:44:56;4.10;;;3.70;;
7523;SDS011;3803;51.666;7.630;2022-07-03T01:45:19;4.13;;;3.72;;
7523;SDS011;3803;51.666;7.630;2022-07-03T01:45:42;4.72;;;3.72;;
7523;SDS011;3803;51.666;7.630;2022-07-03T01:46:04;5.47;;;3.80;;
7523;SDS011;3803;51.666;7.630;2022-07-03T01:46:28;5.82;;;3.60;;
7523;SDS011;3803;51.666;7.630;2022-07-03T01:46:52;4.85;;;3.55;;
7523;SDS011;3803;51.666;7.630;2022-07-03T01:47:16;4.72;;;3.78;;
7523;SDS011;3803;51.666;7.630;2022-07-03T01:47:40;6.22;;;4.30;;
7523;SDS011;3803;51.666;7.630;2022-07-03T01:48:01;5.75;;;4.20;;
7523;SDS011;3803;51.666;7.630;2022-07-03T01:48:23;5.10;;;3.85;;
7523;SDS011;3803;51.666;7.630;2022-07-03T01:48:45;3.95;;;3.55;;
7523;SDS011;3803;51.666;7.630;2022-07-03T01:49:06;4.00;;;3.60;;
7523;SDS011;3803;51.666;7.630;2022-07-03T01:49:29;4.57;;;3.80;;
7523;SDS011;3803;51.666;7.630;2022-07-03T01:49:53;4.10;;;3.70;;
7523;SDS011;3803;51.666;7.630;2022-07-03T01:50:14;5.15;;;3.65;;
7523;SDS011;3803;51.666;7.630;2022-07-03T01:50:36;4.57;;;3.55;;
7523;SDS011;3803;51.666;7.630;2022-07-03T01:50:57;6.90;;;3.80;;
7523;SDS011;3803;51.666;7.630;2022-07-03T01:51:18;6.45;;;3.70;;
7523;SDS011;3803;51.666;7.630;2022-07-03T01:51:41;6.95;;;3.60;;
7523;SDS011;3803;51.666;7.630;2022-07-03T01:52:02;4.63;;;3.40;;
7523;SDS011;3803;51.666;7.630;2022-07-03T01:52:23;3.83;;;3.43;;
7523;SDS011;3803;51.666;7.630;2022-07-03T01:52:45;3.83;;;3.53;;
7523;SDS011;3803;51.666;7.630;2022-07-03T01:53:10;3.75;;;3.45;;
7523;SDS011;3803;51.666;7.630;2022-07-03T01:53:31;3.90;;;3.50;;
7523;SDS011;3803;51.666;7.630;2022-07-03T01:53:53;4.55;;;3.60;;
7523;SDS011;3803;51.666;7.630;2022-07-03T01:54:14;4.70;;;3.80;;
7523;SDS011;3803;51.666;7.630;2022-07-03T01:54:35;4.53;;;3.75;;
7523;SDS011;3803;51.666;7.630;2022-07-03T01:55:00;3.95;;;3.55;;
7523;SDS011;3803;51.666;7.630;2022-07-03T01:55:22;5.88;;;3.80;;
7523;SDS011;3803;51.666;7.630;2022-07-03T01:55:44;5.82;;;3.67;;
7523;SDS011;3803;51.666;7.630;2022-07-03T01:56:06;4.05;;;3.40;;
7523;SDS011;3803;51.666;7.630;2022-07-03T01:56:28;3.47;;;3.17;;
7523;SDS011;3803;51.666;7.630;2022-07-03T01:56:53;3.60;;;3.30;;
7523;SDS011;3803;51.666;7.630;2022-07-03T01:57:14;4.00;;;3.60;;
7523;SDS011;3803;51.666;7.630;2022-07-03T01:57:48;3.92;;;3.50;;
7523;SDS011;3803;51.666;7.630;2022-07-03T01:58:10;4.28;;;3.50;;
7523;SDS011;3803;51.666;7.630;2022-07-03T01:58:32;5.70;;;3.88;;
7523;SDS011;3803;51.666;7.630;2022-07-03T01:58:53;4.88;;;3.83;;
7523;SDS011;3803;51.666;7.630;2022-07-03T01:59:13;6.87;;;3.87;;
7523;SDS011;3803;51.666;7.630;2022-07-03T01:59:34;5.47;;;3.50;;
7523;SDS011;3803;51.666;7.630;2022-07-03T01:59:55;8.68;;;3.70;;
7523;SDS011;3803;51.666;7.630;2022-07-03T02:00:20;7.78;;;3.60;;
7523;SDS011;3803;51.666;7.630;2022-07-03T02:02:23;5.78;;;3.90;;
7523;SDS011;3803;51.666;7.630;2022-07-03T02:03:03;5.03;;;3.50;;
7523;SDS011;3803;51.666;7.630;2022-07-03T02:05:09;4.35;;;3.70;;
7523;SDS011;3803;51.666;7.630;2022-07-03T02:05:43;4.57;;;3.90;;
7523;SDS011;3803;51.666;7.630;2022-07-03T02:06:09;4.80;;;4.00;;
7523;SDS011;3803;51.666;7.630;2022-07-03T02:07:35;4.30;;;3.90;;
7523;SDS011;3803;51.666;7.630;2022-07-03T02:08:11;4.20;;;3.80;;
7523;SDS011;3803;51.666;7.630;2022-07-03T02:08:50;4.70;;;3.55;;
7523;SDS011;3803;51.666;7.630;2022-07-03T02:09:22;4.53;;;3.70;;
7523;SDS011;3803;51.666;7.630;2022-07-03T02:09:49;4.50;;;3.90;;
7523;SDS011;3803;51.666;7.630;2022-07-03T02:10:19;5.80;;;3.90;;
7523;SDS011;3803;51.666;7.630;2022-07-03T02:10:52;6.70;;;3.88;;
7523;SDS011;3803;51.666;7.630;2022-07-03T02:11:28;4.68;;;3.60;;
7523;SDS011;3803;51.666;7.630;2022-07-03T02:11:55;5.20;;;3.40;;
7523;SDS011;3803;51.666;7.630;2022-07-03T02:12:17;5.78;;;3.55;;
7523;SDS011;3803;51.666;7.630;2022-07-03T02:12:49;4.60;;;3.63;;
7523;SDS011;3803;51.666;7.630;2022-07-03T02:13:23;5.45;;;3.92;;
7523;SDS011;3803;51.666;7.630;2022-07-03T02:14:19;6.22;;;4.13;;
7523;SDS011;3803;51.666;7.630;2022-07-03T02:14:53;4.30;;;3.90;;
7523;SDS011;3803;51.666;7.630;2022-07-03T02:15:28;4.30;;;3.90;;
7523;SDS011;3803;51.666;7.630;2022-07-03T02:15:52;4.75;;;4.25;;
7523;SDS011;3803;51.666;7.630;2022-07-03T02:16:16;4.60;;;4.20;;
7523;SDS011;3803;51.666;7.630;2022-07-03T02:16:50;4.40;;;4.00;;
7523;SDS011;3803;51.666;7.630;2022-07-03T02:17:29;4.50;;;4.10;;
7523;SDS011;3803;51.666;7.630;2022-07-03T02:17:57;4.10;;;3.70;;
7523;SDS011;3803;51.666;7.630;2022-07-03T02:18:27;4.05;;;3.60;;
7523;SDS011;3803;51.666;7.630;2022-07-03T02:18:53;4.30;;;3.88;;
7523;SDS011;3803;51.666;7.630;2022-07-03T02:19:18;4.57;;;3.80;;
7523;SDS011;3803;51.666;7.630;2022-07-03T02:20:00;4.30;;;3.67;;
7523;SDS011;3803;51.666;7.630;2022-07-03T02:20:23;4.82;;;3.70;;
7523;SDS011;3803;51.666;7.630;2022-07-03T02:20:46;4.70;;;3.60;;
7523;SDS011;3803;51.666;7.630;2022-07-03T02:21:31;4.30;;;3.40;;
7523;SDS011;3803;51.666;7.630;2022-07-03T02:21:52;5.70;;;3.60;;
7523;SDS011;3803;51.666;7.630;2022-07-03T02:22:31;5.40;;;3.70;;
7523;SDS011;3803;51.666;7.630;2022-07-03T02:22:58;5.00;;;3.65;;
7523;SDS011;3803;51.666;7.630;2022-07-03T02:23:21;5.00;;;3.63;;
7523;SDS011;3803;51.666;7.630;2022-07-03T02:23:55;4.65;;;3.47;;
7523;SDS011;3803;51.666;7.630;2022-07-03T02:24:47;4.05;;;3.25;;
7523;SDS011;3803;51.666;7.630;2022-07-03T02:25:08;5.18;;;3.65;;
7523;SDS011;3803;51.666;7.630;2022-07-03T02:25:40;5.85;;;3.83;;
7523;SDS011;3803;51.666;7.630;2022-07-03T02:26:05;4.95;;;3.55;;
7523;SDS011;3803;51.666;7.630;2022-07-03T02:26:32;3.83;;;3.53;;
7523;SDS011;3803;51.666;7.630;2022-07-03T02:27:03;3.80;;;3.50;;
7523;SDS011;3803;51.666;7.630;2022-07-03T02:27:25;4.00;;;3.60;;
7523;SDS011;3803;51.666;7.630;2022-07-03T02:28:33;4.78;;;3.40;;
7523;SDS011;3803;51.666;7.630;2022-07-03T02:28:58;4.43;;;3.50;;
7523;SDS011;3803;51.666;7.630;2022-07-03T02:29:26;5.50;;;3.60;;
7523;SDS011;3803;51.666;7.630;2022-07-03T02:29:59;4.45;;;3.70;;
7523;SDS011;3803;51.666;7.630;2022-07-03T02:30:24;4.10;;;3.70;;
7523;SDS011;3803;51.666;7.630;2022-07-03T02:30:48;3.85;;;3.45;;
7523;SDS011;3803;51.666;7.630;2022-07-03T02:31:11;3.80;;;3.40;;
7523;SDS011;3803;51.666;7.630;2022-07-03T02:31:43;4.00;;;3.60;;
7523;SDS011;3803;51.666;7.630;2022-07-03T02:32:06;4.05;;;3.75;;
7523;SDS011;3803;51.666;7.630;2022-07-03T02:32:34;4.22;;;3.83;;
7523;SDS011;3803;51.666;7.630;2022-07-03T02:32:59;7.85;;;4.00;;
7523;SDS011;3803;51.666;7.630;2022-07-03T02:33:24;7.35;;;3.85;;
7523;SDS011;3803;51.666;7.630;2022-07-03T02:33:49;5.72;;;3.90;;
7523;SDS011;3803;51.666;7.630;2022-07-03T02:34:15;5.93;;;4.07;;
7523;SDS011;3803;51.666;7.630;2022-07-03T02:34:37;6.30;;;4.20;;
7523;SDS011;3803;51.666;7.630;2022-07-03T02:35:07;4.95;;;4.30;;
7523;SDS011;3803;51.666;7.630;2022-07-03T02:35:31;4.28;;;3.88;;
7523;SDS011;3803;51.666;7.630;2022-07-03T02:35:54;3.90;;;3.60;;
7523;SDS011;3803;51.666;7.630;2022-07-03T02:36:17;4.28;;;3.88;;
7523;SDS011;3803;51.666;7.630;2022-07-03T02:36:41;4.30;;;3.90;;
7523;SDS011;3803;51.666;7.630;2022-07-03T02:37:09;4.40;;;4.00;;
7523;SDS011;3803;51.666;7.630;2022-07-03T02:37:35;7.30;;;3.70;;
7523;SDS011;3803;51.666;7.630;2022-07-03T02:38:06;7.15;;;4.00;;
7523;SDS011;3803;51.666;7.630;2022-07-03T02:38:30;5.10;;;4.20;;
7523;SDS011;3803;51.666;7.630;2022-07-03T02:38:51;5.25;;;4.15;;
7523;SDS011;3803;51.666;7.630;2022-07-03T02:39:23;4.37;;;3.90;;
7523;SDS011;3803;51.666;7.630;2022-07-03T02:40:08;4.43;;;4.03;;
7523;SDS011;3803;51.666;7.630;2022-07-03T02:40:43;4.20;;;3.80;;
7523;SDS011;3803;51.666;7.630;2022-07-03T02:41:12;4.28;;;3.88;;
7523;SDS011;3803;51.666;7.630;2022-07-03T02:41:45;4.10;;;3.70;;
7523;SDS011;3803;51.666;7.630;2022-07-03T02:42:14;4.20;;;3.60;;
7523;SDS011;3803;51.666;7.630;2022-07-03T02:42:47;5.03;;;3.97;;
7523;SDS011;3803;51.666;7.630;2022-07-03T02:44:47;4.05;;;3.65;;
7523;SDS011;3803;51.666;7.630;2022-07-03T02:45:13;3.80;;;3.50;;
7523;SDS011;3803;51.666;7.630;2022-07-03T02:45:43;3.88;;;3.58;;
7523;SDS011;3803;51.666;7.630;2022-07-03T02:48:21;6.35;;;4.00;;
7523;SDS011;3803;51.666;7.630;2022-07-03T02:48:48;5.03;;;3.83;;
7523;SDS011;3803;51.666;7.630;2022-07-03T02:49:14;4.60;;;3.90;;
7523;SDS011;3803;51.666;7.630;2022-07-03T02:51:40;4.00;;;3.60;;
7523;SDS011;3803;51.666;7.630;2022-07-03T02:52:09;3.90;;;3.60;;
7523;SDS011;3803;51.666;7.630;2022-07-03T02:53:03;4.82;;;4.30;;
7523;SDS011;3803;51.666;7.630;2022-07-03T02:54:14;4.40;;;4.00;;
7523;SDS011;3803;51.666;7.630;2022-07-03T02:54:39;4.78;;;3.72;;
7523;SDS011;3803;51.666;7.630;2022-07-03T02:57:14;4.25;;;3.80;;
7523;SDS011;3803;51.666;7.630;2022-07-03T02:57:45;4.15;;;3.75;;
7523;SDS011;3803;51.666;7.630;2022-07-03T03:00:12;4.55;;;4.00;;
7523;SDS011;3803;51.666;7.630;2022-07-03T03:00:33;4.40;;;4.00;;
7523;SDS011;3803;51.666;7.630;2022-07-03T03:03:17;6.30;;;4.40;;
7523;SDS011;3803;51.666;7.630;2022-07-03T03:04:29;5.70;;;4.30;;
7523;SDS011;3803;51.666;7.630;2022-07-03T03:04:34;4.80;;;4.40;;
7523;SDS011;3803;51.666;7.630;2022-07-03T03:04:58;4.60;;;4.20;;
7523;SDS011;3803;51.666;7.630;2022-07-03T03:06:02;5.50;;;4.90;;
7523;SDS011;3803;51.666;7.630;2022-07-03T03:06:33;5.07;;;4.57;;
7523;SDS011;3803;51.666;7.630;2022-07-03T03:07:06;4.95;;;4.45;;
7523;SDS011;3803;51.666;7.630;2022-07-03T03:07:34;5.50;;;4.50;;